Time;durP1;ratioP1;P1;durP2;ratioP2;P2;SDS_P1;SDS_P2;PMS_P1;PMS_P2;Temp;Humidity;BMP_temperature;BMP_pressure;BME280_temperature;BME280_humidity;BME280_pressure;Samples;Min_cycle;Max_cycle;Signal;HPM_P1;HPM_P2
2022/01/06 00:03:36;;;;;;;;;;;4.30;99.90;;;;;;10170857;28;84800;-55
2022/01/06 00:08:38;;;;;;;;;;;4.30;99.90;;;;;;10168396;28;84899;-54
2022/01/06 00:24:01;;;;;;;;;;;4.20;99.90;;;;;;10169492;28;84870;-51
2022/01/06 00:29:02;;;;;;;;;;;4.20;99.90;;;;;;10167589;28;86901;-58
2022/01/06 00:34:03;;;;;;;;;;;4.20;99.90;;;;;;10169012;28;84087;-57
2022/01/06 00:39:04;;;;;;;;;;;4.20;99.90;;;;;;10168628;28;84373;-55
2022/01/06 00:44:05;;;;;;;;;;;4.20;99.90;;;;;;10169548;28;84195;-56
2022/01/06 00:49:06;;;;;;;;;;;4.20;99.90;;;;;;10169155;28;85155;-52
2022/01/06 00:54:06;;;;;;;;;;;4.20;99.90;;;;;;10169236;28;84870;-54
2022/01/06 00:59:07;;;;;;;;;;;4.20;99.90;;;;;;10167377;28;84970;-58
2022/01/06 01:04:07;;;;;;;;;;;4.10;99.90;;;;;;10168946;28;84736;-54
2022/01/06 01:09:08;;;;;;;;;;;4.10;99.90;;;;;;10167678;28;85274;-57
2022/01/06 01:14:25;;;;;;;;;;;4.10;99.90;;;;;;10167823;28;83937;-57
2022/01/06 01:19:26;;;;;;;;;;;4.10;99.90;;;;;;10167099;28;84780;-57
2022/01/06 01:24:26;;;;;;;;;;;4.10;99.90;;;;;;10166115;28;85782;-56
2022/01/06 01:29:30;;;;;;;;;;;4.10;99.90;;;;;;10167523;28;84884;-56
2022/01/06 01:34:31;;;;;;;;;;;4.20;99.90;;;;;;10167891;28;85097;-56
2022/01/06 01:39:31;;;;;;;;;;;4.20;99.90;;;;;;10166798;28;84182;-55
2022/01/06 01:44:33;;;;;;;;;;;4.20;99.90;;;;;;10167380;28;84107;-56
2022/01/06 01:49:48;;;;;;;;;;;4.10;99.90;;;;;;10166753;28;84916;-58
2022/01/06 01:54:49;;;;;;;;;;;4.10;99.90;;;;;;10167490;28;84293;-56
2022/01/06 01:59:50;;;;;;;;;;;4.00;99.90;;;;;;10166914;28;84358;-56
2022/01/06 02:04:52;;;;;;;;;;;4.00;99.90;;;;;;10166754;28;84833;-57
2022/01/06 02:09:53;;;;;;;;;;;4.00;99.90;;;;;;10165717;28;84267;-55
2022/01/06 02:14:53;;;;;;;;;;;3.90;99.90;;;;;;10166888;28;84125;-57
2022/01/06 02:19:54;;;;;;;;;;;3.90;99.90;;;;;;10165910;28;84102;-57
2022/01/06 02:24:54;;;;;;;;;;;3.80;99.90;;;;;;10165694;28;85114;-57
2022/01/06 02:29:55;;;;;;;;;;;3.80;99.90;;;;;;10164856;28;85347;-57
2022/01/06 02:34:55;;;;;;;;;;;3.90;99.90;;;;;;10164759;28;84361;-52
2022/01/06 02:39:56;;;;;;;;;;;4.00;99.90;;;;;;10165007;28;84425;-57
2022/01/06 02:44:56;;;;;;;;;;;3.90;99.90;;;;;;10164913;28;84112;-57
2022/01/06 02:49:57;;;;;;;;;;;3.80;99.90;;;;;;10164600;28;84102;-57
2022/01/06 02:54:58;;;;;;;;;;;3.80;99.90;;;;;;10164928;28;84991;-55
2022/01/06 02:59:59;;;;;;;;;;;3.90;99.90;;;;;;10165554;28;84755;-56
2022/01/06 03:04:59;;;;;;;;;;;4.00;99.90;;;;;;10165384;28;84763;-56
2022/01/06 03:10:02;;;;;;;;;;;4.00;99.90;;;;;;10164374;28;85127;-58
2022/01/06 03:15:03;;;;;;;;;;;4.00;99.90;;;;;;10164693;28;84305;-53
2022/01/06 03:20:05;;;;;;;;;;;4.00;99.90;;;;;;10164044;28;84508;-55
2022/01/06 03:25:07;;;;;;;;;;;4.00;99.90;;;;;;10164498;28;84117;-54
2022/01/06 03:30:09;;;;;;;;;;;3.90;99.90;;;;;;10162092;28;84194;-55
2022/01/06 03:35:12;;;;;;;;;;;3.90;99.90;;;;;;10162605;28;85896;-55
2022/01/06 03:40:13;;;;;;;;;;;3.90;99.90;;;;;;10163481;28;84887;-56
2022/01/06 03:45:15;;;;;;;;;;;3.90;99.90;;;;;;10170865;28;84636;-56
2022/01/06 03:50:16;;;;;;;;;;;3.80;99.90;;;;;;10170088;28;84717;-55
2022/01/06 03:55:18;;;;;;;;;;;3.80;99.90;;;;;;10170019;28;84091;-52
2022/01/06 04:00:19;;;;;;;;;;;3.70;99.90;;;;;;10169032;28;84458;-55
2022/01/06 04:05:20;;;;;;;;;;;3.70;99.90;;;;;;10176777;28;85159;-58
2022/01/06 04:10:21;;;;;;;;;;;3.60;99.90;;;;;;10173906;28;84891;-56
2022/01/06 04:15:24;;;;;;;;;;;3.50;99.90;;;;;;10173502;28;84776;-55
2022/01/06 04:20:24;;;;;;;;;;;3.50;99.90;;;;;;10168378;28;84800;-53
2022/01/06 04:25:25;;;;;;;;;;;3.50;99.90;;;;;;10168422;28;84169;-54
2022/01/06 04:30:25;;;;;;;;;;;3.50;99.90;;;;;;10168709;28;84200;-56
2022/01/06 04:35:26;;;;;;;;;;;3.50;99.90;;;;;;10168783;28;84429;-56
2022/01/06 04:40:26;;;;;;;;;;;3.40;99.90;;;;;;10168077;28;84177;-58
2022/01/06 04:45:27;;;;;;;;;;;3.40;99.90;;;;;;10167805;28;84854;-53
2022/01/06 04:50:28;;;;;;;;;;;3.40;99.90;;;;;;10169028;28;84054;-53
2022/01/06 04:55:28;;;;;;;;;;;3.40;99.90;;;;;;10167225;28;84813;-55
2022/01/06 05:00:29;;;;;;;;;;;3.40;99.90;;;;;;10168137;28;83994;-56
2022/01/06 05:05:29;;;;;;;;;;;3.40;99.90;;;;;;10167519;28;84905;-55
2022/01/06 05:10:30;;;;;;;;;;;3.30;99.90;;;;;;10166291;28;84516;-55
2022/01/06 05:15:30;;;;;;;;;;;3.20;99.90;;;;;;10167749;28;83997;-56
2022/01/06 05:20:31;;;;;;;;;;;3.20;99.90;;;;;;10167747;28;83972;-57
2022/01/06 05:25:32;;;;;;;;;;;3.20;99.90;;;;;;10167202;28;84690;-56
2022/01/06 05:30:33;;;;;;;;;;;3.10;99.90;;;;;;10165611;28;84795;-54
2022/01/06 05:35:34;;;;;;;;;;;3.10;99.90;;;;;;10165122;28;84127;-57
2022/01/06 05:40:34;;;;;;;;;;;3.00;99.90;;;;;;10223637;23;84826;-47
2022/01/06 05:45:35;;;;;;;;;;;3.00;99.90;;;;;;10224535;28;84101;-47
2022/01/06 05:50:35;;;;;;;;;;;3.10;99.90;;;;;;10243632;28;84845;-48
2022/01/06 05:55:36;;;;;;;;;;;3.00;99.90;;;;;;10247714;28;84991;-48
2022/01/06 06:00:36;;;;;;;;;;;3.00;99.90;;;;;;10246721;28;84017;-50
2022/01/06 06:05:37;;;;;;;;;;;3.00;99.90;;;;;;10244354;28;84230;-52
2022/01/06 06:10:37;;;;;;;;;;;3.00;99.90;;;;;;10222815;28;84145;-52
2022/01/06 06:15:38;;;;;;;;;;;2.90;99.90;;;;;;10220260;28;84181;-48
2022/01/06 06:20:41;;;;;;;;;;;2.90;99.90;;;;;;10238559;28;87215;-48
2022/01/06 06:25:41;;;;;;;;;;;2.90;99.90;;;;;;10222571;28;84448;-51
2022/01/06 06:30:42;;;;;;;;;;;2.90;99.90;;;;;;10240657;28;84305;-49
2022/01/06 06:35:42;;;;;;;;;;;2.90;99.90;;;;;;10248552;28;85010;-50
2022/01/06 06:40:43;;;;;;;;;;;2.90;99.90;;;;;;10256726;28;85079;-50
2022/01/06 06:45:43;;;;;;;;;;;2.90;99.90;;;;;;10251921;28;84322;-51
2022/01/06 06:50:44;;;;;;;;;;;2.80;99.90;;;;;;10239596;28;84241;-51
2022/01/06 06:55:45;;;;;;;;;;;2.80;99.90;;;;;;10214265;28;84171;-47
2022/01/06 07:00:46;;;;;;;;;;;2.70;99.90;;;;;;10222011;28;84892;-51
2022/01/06 07:05:46;;;;;;;;;;;2.70;99.90;;;;;;10234002;28;84880;-46
2022/01/06 07:10:47;;;;;;;;;;;2.60;99.90;;;;;;10224700;28;84116;-47
2022/01/06 07:15:47;;;;;;;;;;;2.50;99.90;;;;;;10225632;28;84183;-51
2022/01/06 07:20:48;;;;;;;;;;;2.50;99.90;;;;;;10230477;28;84261;-51
2022/01/06 07:25:48;;;;;;;;;;;2.40;99.90;;;;;;10232551;28;84784;-48
2022/01/06 07:30:49;;;;;;;;;;;2.40;99.90;;;;;;10228692;28;86290;-51
2022/01/06 07:35:49;;;;;;;;;;;2.40;99.90;;;;;;10232393;28;84349;-45
2022/01/06 07:40:50;;;;;;;;;;;2.40;99.90;;;;;;10228716;28;84162;-45
2022/01/06 07:45:51;;;;;;;;;;;2.40;99.90;;;;;;10231909;28;84957;-45
2022/01/06 07:50:51;;;;;;;;;;;2.50;99.90;;;;;;10230145;28;84915;-46
2022/01/06 07:55:52;;;;;;;;;;;2.50;99.90;;;;;;10227486;28;85498;-48
2022/01/06 08:00:52;;;;;;;;;;;2.50;99.90;;;;;;10230866;28;84870;-47
2022/01/06 08:05:53;;;;;;;;;;;2.50;99.90;;;;;;10229059;28;84134;-48
2022/01/06 08:10:53;;;;;;;;;;;2.50;99.90;;;;;;10229765;28;84120;-47
2022/01/06 08:15:54;;;;;;;;;;;2.50;99.90;;;;;;10230062;28;85065;-48
2022/01/06 08:20:55;;;;;;;;;;;2.50;99.90;;;;;;10229235;28;84553;-50
2022/01/06 08:25:56;;;;;;;;;;;2.40;99.90;;;;;;10236765;28;84763;-48
2022/01/06 08:30:56;;;;;;;;;;;2.40;99.90;;;;;;10231462;28;84039;-52
2022/01/06 08:35:57;;;;;;;;;;;2.40;99.90;;;;;;10228686;28;85150;-49
2022/01/06 08:40:57;;;;;;;;;;;2.40;99.90;;;;;;10228391;28;84999;-49
2022/01/06 08:45:58;;;;;;;;;;;2.70;99.90;;;;;;10228743;28;84052;-46
2022/01/06 08:50:58;;;;;;;;;;;3.20;99.90;;;;;;10227138;28;84335;-49
2022/01/06 08:55:59;;;;;;;;;;;3.40;99.90;;;;;;10231639;28;84889;-49
2022/01/06 09:00:59;;;;;;;;;;;3.50;99.90;;;;;;10228787;28;84856;-50
2022/01/06 09:06:00;;;;;;;;;;;3.70;99.90;;;;;;10227246;28;84159;-49
2022/01/06 09:11:01;;;;;;;;;;;4.10;99.90;;;;;;10229393;28;84265;-49
2022/01/06 09:16:01;;;;;;;;;;;4.20;99.90;;;;;;10226213;28;84242;-51
2022/01/06 09:21:02;;;;;;;;;;;4.30;99.90;;;;;;10229304;28;84831;-49
2022/01/06 09:26:03;;;;;;;;;;;4.40;99.90;;;;;;10229358;28;84776;-50
2022/01/06 09:31:04;;;;;;;;;;;4.70;99.90;;;;;;10228424;28;84179;-48
2022/01/06 09:36:04;;;;;;;;;;;5.00;99.90;;;;;;10226616;28;85331;-49
2022/01/06 09:41:06;;;;;;;;;;;5.30;99.90;;;;;;10228547;28;84755;-45
2022/01/06 09:46:08;;;;;;;;;;;5.30;99.90;;;;;;10225528;28;84212;-48
2022/01/06 09:51:10;;;;;;;;;;;5.30;99.90;;;;;;10236767;28;84809;-47
2022/01/06 09:56:11;;;;;;;;;;;5.70;99.90;;;;;;10247349;28;85118;-52
2022/01/06 10:01:11;;;;;;;;;;;6.80;99.90;;;;;;10247842;28;84224;-49
2022/01/06 10:06:16;;;;;;;;;;;7.20;99.90;;;;;;10247352;28;84208;-47
2022/01/06 10:11:21;;;;;;;;;;;7.60;99.90;;;;;;10247644;28;86413;-48
2022/01/06 10:16:22;;;;;;;;;;;8.10;99.90;;;;;;10226749;28;84889;-48
2022/01/06 10:21:23;;;;;;;;;;;8.30;99.90;;;;;;10221028;28;85143;-48
2022/01/06 10:26:23;;;;;;;;;;;7.60;99.90;;;;;;10242429;28;85038;-53
2022/01/06 10:31:25;;;;;;;;;;;7.10;99.90;;;;;;10232873;28;84289;-50
2022/01/06 10:36:26;;;;;;;;;;;6.70;99.90;;;;;;10226373;28;84094;-50
2022/01/06 10:41:28;;;;;;;;;;;6.40;99.90;;;;;;10224209;28;84772;-48
2022/01/06 10:46:29;;;;;;;;;;;6.40;99.90;;;;;;10225300;28;84067;-49
2022/01/06 10:51:34;;;;;;;;;;;6.30;99.90;;;;;;10226587;28;84956;-50
2022/01/06 10:56:34;;;;;;;;;;;6.40;99.90;;;;;;10233314;28;84931;-51
2022/01/06 11:01:35;;;;;;;;;;;6.30;99.90;;;;;;10229906;28;86137;-51
2022/01/06 11:06:37;;;;;;;;;;;6.10;99.90;;;;;;10232058;28;84999;-47
2022/01/06 11:12:26;;;;;;;;;;;6.20;99.90;;;;;;10231464;28;84081;-52
2022/01/06 11:17:04;;;;;;;;;;;6.10;99.90;;;;;;10232187;28;84206;-49
2022/01/06 11:22:06;;;;;;;;;;;6.10;99.90;;;;;;10229827;28;84063;-54
2022/01/06 11:27:09;;;;;;;;;;;6.10;99.90;;;;;;10228598;28;85866;-48
2022/01/06 11:32:17;;;;;;;;;;;6.10;99.90;;;;;;10231414;28;84199;-49
2022/01/06 11:37:18;;;;;;;;;;;6.00;99.90;;;;;;10231260;28;84729;-53
2022/01/06 11:42:21;;;;;;;;;;;6.10;99.90;;;;;;10294628;23;85163;-57
2022/01/06 11:47:32;;;;;;;;;;;6.00;99.90;;;;;;10272153;28;84072;-57
2022/01/06 11:52:33;;;;;;;;;;;6.10;99.90;;;;;;10250009;28;85009;-59
2022/01/06 11:57:34;;;;;;;;;;;6.20;99.90;;;;;;10250679;28;84800;-58
2022/01/06 12:02:35;;;;;;;;;;;6.30;99.90;;;;;;10249206;28;84927;-58
2022/01/06 12:07:35;;;;;;;;;;;6.40;99.90;;;;;;10247851;28;84178;-56
2022/01/06 12:12:37;;;;;;;;;;;6.40;99.90;;;;;;10250408;28;84253;-56
2022/01/06 12:17:43;;;;;;;;;;;6.50;99.90;;;;;;10249797;28;84327;-55
2022/01/06 12:22:43;;;;;;;;;;;6.60;99.90;;;;;;10247338;28;85608;-57
2022/01/06 12:27:48;;;;;;;;;;;6.50;99.90;;;;;;10249295;28;84986;-58
2022/01/06 12:32:56;;;;;;;;;;;6.60;99.90;;;;;;10247960;28;84368;-57
2022/01/06 12:37:58;;;;;;;;;;;6.70;99.90;;;;;;10245823;28;84445;-57
2022/01/06 12:42:58;;;;;;;;;;;6.70;99.90;;;;;;10248099;28;84688;-54
2022/01/06 12:47:59;;;;;;;;;;;6.60;99.90;;;;;;10248394;28;84085;-58
2022/01/06 12:52:59;;;;;;;;;;;6.60;99.90;;;;;;10248766;28;84322;-57
2022/01/06 12:58:00;;;;;;;;;;;6.80;99.90;;;;;;10248070;28;85577;-56
2022/01/06 13:03:04;;;;;;;;;;;6.80;99.90;;;;;;10248930;28;84074;-57
2022/01/06 13:08:05;;;;;;;;;;;6.90;99.90;;;;;;10245277;28;84448;-55
2022/01/06 13:13:06;;;;;;;;;;;6.90;99.90;;;;;;10247578;28;84242;-56
2022/01/06 13:18:07;;;;;;;;;;;6.90;99.90;;;;;;10246344;28;86261;-58
2022/01/06 13:23:41;;;;;;;;;;;6.90;99.90;;;;;;10247928;28;84269;-56
2022/01/06 13:28:31;;;;;;;;;;;6.90;99.90;;;;;;10245148;28;84306;-57
2022/01/06 13:33:32;;;;;;;;;;;6.80;99.90;;;;;;10247135;28;84996;-57
2022/01/06 13:38:34;;;;;;;;;;;6.80;99.90;;;;;;10242702;28;84782;-56
2022/01/06 13:43:37;;;;;;;;;;;6.80;99.90;;;;;;10246264;28;84948;-58
2022/01/06 13:48:41;;;;;;;;;;;6.80;99.90;;;;;;10246433;28;84149;-58
2022/01/06 13:53:51;;;;;;;;;;;6.70;99.90;;;;;;10246399;28;84119;-53
2022/01/06 13:58:52;;;;;;;;;;;6.60;99.90;;;;;;10244447;28;84066;-55
2022/01/06 14:03:53;;;;;;;;;;;6.50;99.90;;;;;;10246565;28;84679;-56
2022/01/06 14:08:53;;;;;;;;;;;6.50;99.90;;;;;;10243173;28;84554;-56
2022/01/06 14:13:54;;;;;;;;;;;6.40;99.90;;;;;;10245981;28;84180;-56
2022/01/06 14:18:54;;;;;;;;;;;6.50;99.90;;;;;;10245181;28;84969;-55
2022/01/06 14:23:55;;;;;;;;;;;6.40;99.90;;;;;;10246314;28;84943;-54
2022/01/06 14:28:57;;;;;;;;;;;6.20;99.90;;;;;;10244159;28;84260;-55
2022/01/06 14:33:57;;;;;;;;;;;6.10;99.90;;;;;;10244985;28;84974;-56
2022/01/06 14:38:58;;;;;;;;;;;6.10;99.90;;;;;;10238238;28;85154;-59
2022/01/06 14:43:58;;;;;;;;;;;6.00;99.90;;;;;;10243253;28;84959;-58
2022/01/06 14:48:59;;;;;;;;;;;5.90;99.90;;;;;;10244582;28;86076;-58
2022/01/06 14:53:59;;;;;;;;;;;5.90;99.90;;;;;;10245797;28;85357;-57
2022/01/06 14:59:00;;;;;;;;;;;5.90;99.90;;;;;;10244971;28;84353;-56
2022/01/06 15:04:00;;;;;;;;;;;5.80;99.90;;;;;;10238743;28;86853;-57
2022/01/06 15:09:01;;;;;;;;;;;5.80;99.90;;;;;;10240508;28;84810;-54
2022/01/06 15:14:02;;;;;;;;;;;5.70;99.90;;;;;;10238878;28;86106;-57
2022/01/06 15:19:02;;;;;;;;;;;5.80;99.90;;;;;;10240627;28;84803;-56
2022/01/06 15:24:05;;;;;;;;;;;5.80;99.90;;;;;;10241417;28;84811;-55
2022/01/06 15:29:05;;;;;;;;;;;5.70;99.90;;;;;;10243372;28;84551;-58
2022/01/06 15:34:06;;;;;;;;;;;5.60;99.90;;;;;;10241591;28;87144;-58
2022/01/06 15:39:07;;;;;;;;;;;5.50;99.90;;;;;;10243310;28;85070;-57
2022/01/06 15:44:08;;;;;;;;;;;5.40;99.90;;;;;;10248236;28;84834;-55
2022/01/06 15:49:08;;;;;;;;;;;5.20;99.90;;;;;;10249688;28;84203;-57
2022/01/06 15:54:09;;;;;;;;;;;5.10;99.90;;;;;;10251049;28;84401;-58
2022/01/06 15:59:10;;;;;;;;;;;5.00;99.90;;;;;;10249442;28;84048;-56
2022/01/06 16:09:30;;;;;;;;;;;4.80;99.90;;;;;;10247202;28;85758;-55
2022/01/06 16:14:30;;;;;;;;;;;4.60;99.90;;;;;;10250560;28;84052;-58
2022/01/06 16:19:31;;;;;;;;;;;4.60;99.90;;;;;;10249824;28;84124;-55
2022/01/06 16:24:32;;;;;;;;;;;4.50;99.90;;;;;;10250810;28;84021;-57
2022/01/06 16:29:33;;;;;;;;;;;4.40;99.90;;;;;;10250147;28;84817;-57
2022/01/06 16:34:33;;;;;;;;;;;4.30;99.90;;;;;;10248620;28;84274;-60
2022/01/06 16:39:34;;;;;;;;;;;4.20;99.90;;;;;;10240167;28;85333;-56
2022/01/06 16:44:34;;;;;;;;;;;4.20;99.90;;;;;;10246283;28;84328;-59
2022/01/06 16:49:35;;;;;;;;;;;4.10;99.90;;;;;;10243720;28;86419;-59
2022/01/06 16:54:36;;;;;;;;;;;4.00;99.90;;;;;;10244802;28;86894;-59
2022/01/06 16:59:36;;;;;;;;;;;3.90;99.90;;;;;;10238913;28;84938;-62
2022/01/06 17:04:37;;;;;;;;;;;3.80;99.90;;;;;;10246304;28;84329;-59
2022/01/06 17:09:37;;;;;;;;;;;3.80;99.90;;;;;;10245753;28;84819;-56
2022/01/06 17:14:38;;;;;;;;;;;3.70;99.90;;;;;;10244764;28;84966;-54
2022/01/06 17:19:40;;;;;;;;;;;3.70;99.90;;;;;;10244201;28;85378;-58
2022/01/06 17:24:41;;;;;;;;;;;3.70;99.90;;;;;;10236682;28;84145;-53
2022/01/06 17:29:42;;;;;;;;;;;3.70;99.90;;;;;;10247374;28;84684;-52
2022/01/06 17:34:43;;;;;;;;;;;3.60;99.90;;;;;;10239175;28;84181;-53
2022/01/06 17:39:43;;;;;;;;;;;3.60;99.90;;;;;;10257150;23;85106;-48
2022/01/06 17:44:45;;;;;;;;;;;3.50;99.90;;;;;;10201149;28;84726;-45
2022/01/06 17:49:46;;;;;;;;;;;3.50;99.90;;;;;;10201673;28;84927;-52
2022/01/06 17:54:46;;;;;;;;;;;3.50;99.90;;;;;;10208479;28;84355;-53
2022/01/06 17:59:47;;;;;;;;;;;3.60;99.90;;;;;;10239312;28;84120;-55
2022/01/06 18:04:49;;;;;;;;;;;3.60;99.90;;;;;;10247486;28;85334;-54
2022/01/06 18:14:50;;;;;;;;;;;3.50;99.90;;;;;;10248264;28;85047;-53
2022/01/06 18:19:51;;;;;;;;;;;3.50;99.90;;;;;;10245447;28;87292;-54
2022/01/06 18:24:51;;;;;;;;;;;3.50;99.90;;;;;;10245672;28;85055;-52
2022/01/06 18:29:52;;;;;;;;;;;3.50;99.90;;;;;;10235564;28;84018;-53
2022/01/06 18:34:53;;;;;;;;;;;3.50;99.90;;;;;;10211773;28;85819;-53
2022/01/06 18:39:53;;;;;;;;;;;3.50;99.90;;;;;;10224732;28;84573;-50
2022/01/06 18:44:54;;;;;;;;;;;3.40;99.90;;;;;;10211293;28;84942;-59
2022/01/06 18:49:54;;;;;;;;;;;3.50;99.90;;;;;;10223436;28;84836;-53
2022/01/06 18:54:55;;;;;;;;;;;3.50;99.90;;;;;;10204556;28;85108;-60
2022/01/06 18:59:57;;;;;;;;;;;3.40;99.90;;;;;;10203866;28;84572;-53
2022/01/06 19:04:58;;;;;;;;;;;3.40;99.90;;;;;;10205395;28;84811;-51
2022/01/06 19:09:58;;;;;;;;;;;3.40;99.90;;;;;;10202225;28;84694;-60
2022/01/06 19:14:59;;;;;;;;;;;3.40;99.90;;;;;;10206911;28;84278;-54
2022/01/06 19:20:00;;;;;;;26.20;11.70;;;3.40;99.90;;;;;;10209331;28;84250;-57
2022/01/06 19:25:00;;;;;;;17.65;7.25;;;3.40;99.90;;;;;;10208310;28;84386;-53
2022/01/06 19:30:01;;;;;;;18.65;6.45;;;3.30;99.90;;;;;;10199370;28;85073;-54
2022/01/06 19:35:04;;;;;;;13.15;5.55;;;3.40;99.90;;;;;;10213845;28;84707;-55
2022/01/06 19:40:09;;;;;;;15.30;5.90;;;3.40;99.90;;;;;;10213914;28;85126;-58
2022/01/06 19:45:10;;;;;;;21.10;5.60;;;3.50;99.90;;;;;;10212183;28;85107;-54
2022/01/06 19:50:14;;;;;;;14.23;6.63;;;3.60;99.90;;;;;;10214495;28;84340;-55
2022/01/06 19:55:16;;;;;;;12.07;4.80;;;3.60;99.90;;;;;;10214588;28;84136;-53
2022/01/06 20:00:18;;;;;;;18.40;5.60;;;3.60;99.90;;;;;;10214628;28;84232;-53
2022/01/06 20:05:18;;;;;;;19.42;5.60;;;3.50;99.90;;;;;;10204850;28;84994;-50
2022/01/06 20:10:19;;;;;;;18.15;5.25;;;3.40;99.90;;;;;;10216284;28;84306;-55
2022/01/06 20:15:20;;;;;;;12.65;5.20;;;3.40;99.90;;;;;;10215605;28;84202;-53
2022/01/06 20:20:27;;;;;;;21.48;6.30;;;3.40;99.90;;;;;;10205102;28;84719;-50
2022/01/06 20:25:29;;;;;;;11.25;4.85;;;3.30;99.90;;;;;;10212189;28;84896;-50
2022/01/06 20:30:30;;;;;;;22.67;6.25;;;3.40;99.90;;;;;;10204215;28;84280;-49
2022/01/06 20:35:31;;;;;;;12.77;4.88;;;3.30;99.90;;;;;;10212241;28;84328;-57
2022/01/06 20:40:32;;;;;;;17.45;5.18;;;3.30;99.90;;;;;;10208819;28;84899;-52
2022/01/06 20:45:35;;;;;;;18.63;4.97;;;3.30;99.90;;;;;;10210078;28;86228;-51
2022/01/06 20:55:55;;;;;;;10.80;4.82;;;3.30;99.90;;;;;;10207217;28;84108;-52
2022/01/06 21:00:56;;;;;;;14.98;5.30;;;3.30;99.90;;;;;;10210343;28;85070;-52
2022/01/06 21:05:58;;;;;;;11.82;4.28;;;3.20;99.90;;;;;;10208754;28;84830;-54
2022/01/06 21:10:59;;;;;;;11.88;4.68;;;3.30;99.90;;;;;;10208109;28;84831;-54
2022/01/06 21:16:03;;;;;;;14.70;4.55;;;3.30;99.90;;;;;;10207207;28;84355;-53
2022/01/06 21:21:04;;;;;;;17.83;5.55;;;3.30;99.90;;;;;;10205861;28;85806;-49
2022/01/06 21:26:04;;;;;;;14.82;4.40;;;3.30;99.90;;;;;;10206517;28;84227;-49
2022/01/06 21:31:06;;;;;;;9.48;4.20;;;3.30;99.90;;;;;;10205767;28;84959;-54
2022/01/06 21:36:09;;;;;;;15.02;4.03;;;3.30;99.90;;;;;;10204662;28;84988;-52
2022/01/06 21:41:09;;;;;;;13.07;4.13;;;3.40;99.90;;;;;;10207297;28;85284;-50
2022/01/06 21:46:10;;;;;;;11.65;4.32;;;3.40;99.90;;;;;;10207152;28;84964;-51
2022/01/06 21:51:11;;;;;;;14.55;4.55;;;3.40;99.90;;;;;;10207228;28;84300;-50
2022/01/06 21:56:12;;;;;;;11.00;4.38;;;3.40;99.90;;;;;;10205994;28;84034;-51
2022/01/06 22:01:13;;;;;;;10.13;4.72;;;3.40;99.90;;;;;;10206955;28;84081;-52
2022/01/06 22:06:13;;;;;;;14.77;3.58;;;3.50;99.90;;;;;;10198083;28;85720;-51
2022/01/06 22:11:14;;;;;;;13.63;4.15;;;3.50;99.90;;;;;;10206203;28;85005;-52
2022/01/06 22:16:15;;;;;;;13.05;3.65;;;3.40;99.90;;;;;;10206231;28;84780;-53
2022/01/06 22:21:16;;;;;;;9.25;3.08;;;3.40;99.90;;;;;;10206156;28;84115;-50
2022/01/06 22:26:17;;;;;;;12.63;4.60;;;3.40;99.90;;;;;;10204859;28;84363;-51
2022/01/06 22:31:18;;;;;;;12.88;3.80;;;3.30;99.90;;;;;;10206231;28;84245;-52
2022/01/06 22:36:18;;;;;;;9.82;4.00;;;3.20;99.90;;;;;;10206021;28;84881;-50
2022/01/06 22:41:20;;;;;;;10.85;4.32;;;3.20;99.90;;;;;;10205179;28;84200;-49
2022/01/06 22:46:21;;;;;;;8.82;3.33;;;3.20;99.90;;;;;;10204458;28;84369;-52
2022/01/06 22:51:22;;;;;;;7.15;4.20;;;3.20;99.90;;;;;;10205009;28;84837;-49
2022/01/06 22:56:22;;;;;;;11.90;3.55;;;3.20;99.90;;;;;;10205433;28;84155;-53
2022/01/06 23:01:23;;;;;;;7.63;3.10;;;3.20;99.90;;;;;;10204967;28;84597;-53
2022/01/06 23:06:24;;;;;;;9.70;3.10;;;3.20;99.90;;;;;;10219814;28;87273;-51
2022/01/06 23:11:24;;;;;;;8.57;3.72;;;3.20;99.90;;;;;;10205290;28;84110;-51
2022/01/06 23:16:25;;;;;;;7.07;3.17;;;3.20;99.90;;;;;;10205444;28;85103;-50
2022/01/06 23:21:27;;;;;;;8.98;3.47;;;3.20;99.90;;;;;;10204813;28;84805;-55
2022/01/06 23:26:29;;;;;;;5.93;2.92;;;3.30;99.90;;;;;;10187032;28;84428;-51
2022/01/06 23:31:31;;;;;;;7.68;2.80;;;3.30;99.90;;;;;;10203966;28;85298;-49
2022/01/06 23:36:32;;;;;;;9.07;3.30;;;3.30;99.90;;;;;;10204225;28;85010;-49
2022/01/06 23:41:33;;;;;;;7.47;2.58;;;3.30;99.90;;;;;;10218287;23;84878;-55
2022/01/06 23:46:34;;;;;;;14.02;3.40;;;3.40;99.90;;;;;;10204321;28;84842;-55
2022/01/06 23:51:34;;;;;;;10.43;2.72;;;3.40;99.90;;;;;;10186840;28;85998;-58
2022/01/06 23:56:35;;;;;;;9.32;2.92;;;3.40;99.90;;;;;;10204971;28;84889;-56
